sensor_id;sensor_type;location;lat;lon;timestamp;P1;durP1;ratioP1;P2;durP2;ratioP2
63112;SDS011;49206;48.020;21.378;2024-02-15T00:00:59;102.43;;;59.30;;
63112;SDS011;49206;48.020;21.378;2024-02-15T00:02:02;101.88;;;59.03;;
63112;SDS011;49206;48.020;21.378;2024-02-15T00:03:05;109.57;;;62.58;;
63112;SDS011;49206;48.020;21.378;2024-02-15T00:04:28;116.35;;;60.65;;
63112;SDS011;49206;48.020;21.378;2024-02-15T00:05:31;113.28;;;62.88;;
63112;SDS011;49206;48.020;21.378;2024-02-15T00:06:34;111.35;;;62.75;;
63112;SDS011;49206;48.020;21.378;2024-02-15T00:07:38;109.53;;;62.58;;
63112;SDS011;49206;48.020;21.378;2024-02-15T00:08:41;116.53;;;63.13;;
63112;SDS011;49206;48.020;21.378;2024-02-15T00:09:43;117.28;;;62.70;;
63112;SDS011;49206;48.020;21.378;2024-02-15T00:10:46;107.70;;;61.47;;
63112;SDS011;49206;48.020;21.378;2024-02-15T00:11:50;109.03;;;62.03;;
63112;SDS011;49206;48.020;21.378;2024-02-15T00:12:52;105.28;;;61.05;;
63112;SDS011;49206;48.020;21.378;2024-02-15T00:13:55;112.00;;;67.10;;
63112;SDS011;49206;48.020;21.378;2024-02-15T00:14:58;106.85;;;60.13;;
63112;SDS011;49206;48.020;21.378;2024-02-15T00:16:03;108.40;;;61.40;;
63112;SDS011;49206;48.020;21.378;2024-02-15T00:17:06;107.13;;;60.88;;
63112;SDS011;49206;48.020;21.378;2024-02-15T00:18:09;105.40;;;59.35;;
63112;SDS011;49206;48.020;21.378;2024-02-15T00:19:12;102.45;;;59.53;;
63112;SDS011;49206;48.020;21.378;2024-02-15T00:20:17;93.20;;;55.75;;
63112;SDS011;49206;48.020;21.378;2024-02-15T00:21:20;111.63;;;60.58;;
63112;SDS011;49206;48.020;21.378;2024-02-15T00:22:24;97.93;;;58.85;;
63112;SDS011;49206;48.020;21.378;2024-02-15T00:23:27;101.63;;;58.38;;
63112;SDS011;49206;48.020;21.378;2024-02-15T00:24:30;97.40;;;57.20;;
63112;SDS011;49206;48.020;21.378;2024-02-15T00:25:34;101.57;;;58.90;;
63112;SDS011;49206;48.020;21.378;2024-02-15T00:26:38;103.60;;;58.95;;
63112;SDS011;49206;48.020;21.378;2024-02-15T00:27:41;104.10;;;57.75;;
63112;SDS011;49206;48.020;21.378;2024-02-15T00:28:44;102.22;;;57.53;;
63112;SDS011;49206;48.020;21.378;2024-02-15T00:29:47;104.63;;;61.30;;
63112;SDS011;49206;48.020;21.378;2024-02-15T00:30:50;101.55;;;56.95;;
63112;SDS011;49206;48.020;21.378;2024-02-15T00:31:52;101.82;;;57.55;;
63112;SDS011;49206;48.020;21.378;2024-02-15T00:32:57;104.57;;;59.28;;
63112;SDS011;49206;48.020;21.378;2024-02-15T00:34:01;94.88;;;58.05;;
63112;SDS011;49206;48.020;21.378;2024-02-15T00:35:05;96.10;;;54.33;;
63112;SDS011;49206;48.020;21.378;2024-02-15T00:36:10;95.80;;;55.10;;
63112;SDS011;49206;48.020;21.378;2024-02-15T00:37:13;101.70;;;56.33;;
63112;SDS011;49206;48.020;21.378;2024-02-15T00:38:16;103.45;;;57.10;;
63112;SDS011;49206;48.020;21.378;2024-02-15T00:39:19;95.65;;;54.40;;
63112;SDS011;49206;48.020;21.378;2024-02-15T00:40:22;93.88;;;55.75;;
63112;SDS011;49206;48.020;21.378;2024-02-15T00:41:25;95.20;;;54.05;;
63112;SDS011;49206;48.020;21.378;2024-02-15T00:42:27;89.00;;;52.97;;
63112;SDS011;49206;48.020;21.378;2024-02-15T00:43:30;90.50;;;51.55;;
63112;SDS011;49206;48.020;21.378;2024-02-15T00:44:37;91.63;;;54.15;;
63112;SDS011;49206;48.020;21.378;2024-02-15T00:45:40;85.47;;;50.97;;
63112;SDS011;49206;48.020;21.378;2024-02-15T00:46:43;92.60;;;50.53;;
63112;SDS011;49206;48.020;21.378;2024-02-15T00:47:45;91.03;;;51.00;;
63112;SDS011;49206;48.020;21.378;2024-02-15T00:48:48;83.55;;;48.83;;
63112;SDS011;49206;48.020;21.378;2024-02-15T00:49:51;89.18;;;49.88;;
63112;SDS011;49206;48.020;21.378;2024-02-15T00:50:55;84.25;;;50.60;;
63112;SDS011;49206;48.020;21.378;2024-02-15T00:52:02;80.60;;;48.28;;
63112;SDS011;49206;48.020;21.378;2024-02-15T00:53:05;79.03;;;49.92;;
63112;SDS011;49206;48.020;21.378;2024-02-15T00:54:07;84.43;;;47.08;;
63112;SDS011;49206;48.020;21.378;2024-02-15T00:55:10;90.68;;;52.65;;
63112;SDS011;49206;48.020;21.378;2024-02-15T00:56:12;84.22;;;51.78;;
63112;SDS011;49206;48.020;21.378;2024-02-15T00:57:15;87.75;;;52.22;;
63112;SDS011;49206;48.020;21.378;2024-02-15T00:58:17;88.43;;;50.03;;
63112;SDS011;49206;48.020;21.378;2024-02-15T00:59:20;82.72;;;48.08;;
63112;SDS011;49206;48.020;21.378;2024-02-15T01:00:23;85.70;;;49.65;;
63112;SDS011;49206;48.020;21.378;2024-02-15T01:01:26;81.50;;;48.10;;
63112;SDS011;49206;48.020;21.378;2024-02-15T01:02:29;87.45;;;49.55;;
63112;SDS011;49206;48.020;21.378;2024-02-15T01:03:32;88.75;;;49.28;;
63112;SDS011;49206;48.020;21.378;2024-02-15T01:04:35;81.38;;;50.53;;
63112;SDS011;49206;48.020;21.378;2024-02-15T01:05:38;87.13;;;49.90;;
63112;SDS011;49206;48.020;21.378;2024-02-15T01:06:41;81.05;;;46.25;;
63112;SDS011;49206;48.020;21.378;2024-02-15T01:07:44;84.10;;;47.67;;
63112;SDS011;49206;48.020;21.378;2024-02-15T01:08:47;79.07;;;46.83;;
63112;SDS011;49206;48.020;21.378;2024-02-15T01:09:50;79.82;;;45.60;;
63112;SDS011;49206;48.020;21.378;2024-02-15T01:10:52;83.68;;;46.75;;
63112;SDS011;49206;48.020;21.378;2024-02-15T01:11:55;83.78;;;51.28;;
63112;SDS011;49206;48.020;21.378;2024-02-15T01:12:58;73.32;;;45.03;;
63112;SDS011;49206;48.020;21.378;2024-02-15T01:14:01;73.05;;;43.83;;
63112;SDS011;49206;48.020;21.378;2024-02-15T01:15:04;70.10;;;39.80;;
63112;SDS011;49206;48.020;21.378;2024-02-15T01:16:08;73.22;;;41.40;;
63112;SDS011;49206;48.020;21.378;2024-02-15T01:17:12;71.43;;;43.75;;
63112;SDS011;49206;48.020;21.378;2024-02-15T01:18:15;71.03;;;43.70;;
63112;SDS011;49206;48.020;21.378;2024-02-15T01:19:17;73.28;;;43.30;;
63112;SDS011;49206;48.020;21.378;2024-02-15T01:20:21;72.90;;;40.22;;
63112;SDS011;49206;48.020;21.378;2024-02-15T01:21:24;66.35;;;40.15;;
63112;SDS011;49206;48.020;21.378;2024-02-15T01:22:26;71.47;;;41.88;;
63112;SDS011;49206;48.020;21.378;2024-02-15T01:23:29;70.97;;;38.70;;
63112;SDS011;49206;48.020;21.378;2024-02-15T01:24:32;65.70;;;38.90;;
63112;SDS011;49206;48.020;21.378;2024-02-15T01:25:35;63.55;;;37.60;;
63112;SDS011;49206;48.020;21.378;2024-02-15T01:26:38;66.93;;;39.00;;
63112;SDS011;49206;48.020;21.378;2024-02-15T01:27:41;69.07;;;39.88;;
63112;SDS011;49206;48.020;21.378;2024-02-15T01:28:44;67.10;;;38.60;;
63112;SDS011;49206;48.020;21.378;2024-02-15T01:29:47;64.95;;;37.25;;
63112;SDS011;49206;48.020;21.378;2024-02-15T01:30:49;65.35;;;35.67;;
63112;SDS011;49206;48.020;21.378;2024-02-15T01:31:52;60.03;;;35.97;;
63112;SDS011;49206;48.020;21.378;2024-02-15T01:32:55;60.38;;;37.25;;
63112;SDS011;49206;48.020;21.378;2024-02-15T01:33:58;60.33;;;37.20;;
63112;SDS011;49206;48.020;21.378;2024-02-15T01:35:02;61.28;;;37.47;;
63112;SDS011;49206;48.020;21.378;2024-02-15T01:36:05;62.53;;;37.38;;
63112;SDS011;49206;48.020;21.378;2024-02-15T01:37:08;66.15;;;37.97;;
63112;SDS011;49206;48.020;21.378;2024-02-15T01:38:11;62.83;;;37.75;;
63112;SDS011;49206;48.020;21.378;2024-02-15T01:39:14;63.42;;;37.90;;
63112;SDS011;49206;48.020;21.378;2024-02-15T01:40:17;68.70;;;39.83;;
63112;SDS011;49206;48.020;21.378;2024-02-15T01:41:19;64.15;;;38.38;;
63112;SDS011;49206;48.020;21.378;2024-02-15T01:42:22;70.65;;;38.97;;
63112;SDS011;49206;48.020;21.378;2024-02-15T01:43:26;60.35;;;37.28;;
63112;SDS011;49206;48.020;21.378;2024-02-15T01:44:30;60.85;;;36.95;;
63112;SDS011;49206;48.020;21.378;2024-02-15T01:45:32;61.40;;;35.20;;
63112;SDS011;49206;48.020;21.378;2024-02-15T01:46:35;60.78;;;36.08;;
63112;SDS011;49206;48.020;21.378;2024-02-15T01:47:38;65.10;;;37.13;;
63112;SDS011;49206;48.020;21.378;2024-02-15T01:48:43;61.92;;;36.20;;
63112;SDS011;49206;48.020;21.378;2024-02-15T01:49:46;60.33;;;36.53;;
63112;SDS011;49206;48.020;21.378;2024-02-15T01:50:51;64.95;;;37.08;;
63112;SDS011;49206;48.020;21.378;2024-02-15T01:51:54;60.47;;;35.10;;
63112;SDS011;49206;48.020;21.378;2024-02-15T01:52:57;63.78;;;37.22;;
63112;SDS011;49206;48.020;21.378;2024-02-15T01:54:01;56.55;;;34.13;;
63112;SDS011;49206;48.020;21.378;2024-02-15T01:55:05;65.97;;;36.30;;
63112;SDS011;49206;48.020;21.378;2024-02-15T01:56:12;71.68;;;35.85;;
63112;SDS011;49206;48.020;21.378;2024-02-15T01:57:16;69.75;;;36.28;;
63112;SDS011;49206;48.020;21.378;2024-02-15T01:58:20;68.55;;;36.83;;
63112;SDS011;49206;48.020;21.378;2024-02-15T01:59:23;60.97;;;37.03;;
63112;SDS011;49206;48.020;21.378;2024-02-15T02:00:27;64.85;;;35.97;;
63112;SDS011;49206;48.020;21.378;2024-02-15T02:01:31;67.75;;;37.75;;
63112;SDS011;49206;48.020;21.378;2024-02-15T02:02:34;63.78;;;36.42;;
63112;SDS011;49206;48.020;21.378;2024-02-15T02:03:37;66.38;;;35.67;;
63112;SDS011;49206;48.020;21.378;2024-02-15T02:04:41;69.43;;;36.15;;
63112;SDS011;49206;48.020;21.378;2024-02-15T02:05:44;61.97;;;34.97;;
63112;SDS011;49206;48.020;21.378;2024-02-15T02:06:47;66.32;;;35.42;;
63112;SDS011;49206;48.020;21.378;2024-02-15T02:07:50;57.63;;;37.58;;
63112;SDS011;49206;48.020;21.378;2024-02-15T02:08:53;62.25;;;34.55;;
63112;SDS011;49206;48.020;21.378;2024-02-15T02:09:58;56.65;;;33.25;;
63112;SDS011;49206;48.020;21.378;2024-02-15T02:11:01;61.08;;;34.88;;
63112;SDS011;49206;48.020;21.378;2024-02-15T02:12:04;61.15;;;34.65;;
63112;SDS011;49206;48.020;21.378;2024-02-15T02:13:08;64.60;;;35.70;;
63112;SDS011;49206;48.020;21.378;2024-02-15T02:14:12;58.28;;;33.17;;
63112;SDS011;49206;48.020;21.378;2024-02-15T02:15:15;53.95;;;34.28;;
63112;SDS011;49206;48.020;21.378;2024-02-15T02:16:27;57.67;;;33.92;;
63112;SDS011;49206;48.020;21.378;2024-02-15T02:17:30;56.60;;;33.25;;
63112;SDS011;49206;48.020;21.378;2024-02-15T02:18:33;58.17;;;33.72;;
63112;SDS011;49206;48.020;21.378;2024-02-15T02:19:38;60.10;;;34.80;;
63112;SDS011;49206;48.020;21.378;2024-02-15T02:20:41;59.20;;;32.75;;
63112;SDS011;49206;48.020;21.378;2024-02-15T02:21:44;59.13;;;32.95;;
63112;SDS011;49206;48.020;21.378;2024-02-15T02:22:48;57.60;;;32.50;;
63112;SDS011;49206;48.020;21.378;2024-02-15T02:23:53;59.67;;;34.55;;
63112;SDS011;49206;48.020;21.378;2024-02-15T02:25:05;57.47;;;33.20;;
63112;SDS011;49206;48.020;21.378;2024-02-15T02:26:10;57.08;;;34.35;;
63112;SDS011;49206;48.020;21.378;2024-02-15T02:27:13;54.55;;;32.13;;
63112;SDS011;49206;48.020;21.378;2024-02-15T02:28:18;51.15;;;31.55;;
63112;SDS011;49206;48.020;21.378;2024-02-15T02:29:20;53.50;;;32.25;;
63112;SDS011;49206;48.020;21.378;2024-02-15T02:30:23;52.60;;;32.08;;
63112;SDS011;49206;48.020;21.378;2024-02-15T02:31:28;56.08;;;31.92;;
63112;SDS011;49206;48.020;21.378;2024-02-15T02:32:34;52.40;;;30.92;;
63112;SDS011;49206;48.020;21.378;2024-02-15T02:33:38;57.80;;;31.05;;
63112;SDS011;49206;48.020;21.378;2024-02-15T02:34:42;54.17;;;30.63;;
63112;SDS011;49206;48.020;21.378;2024-02-15T02:35:45;52.22;;;31.40;;
63112;SDS011;49206;48.020;21.378;2024-02-15T02:36:48;54.15;;;31.67;;
63112;SDS011;49206;48.020;21.378;2024-02-15T02:37:52;50.88;;;30.20;;
63112;SDS011;49206;48.020;21.378;2024-02-15T02:38:55;56.22;;;30.90;;
63112;SDS011;49206;48.020;21.378;2024-02-15T02:40:04;51.67;;;31.33;;
63112;SDS011;49206;48.020;21.378;2024-02-15T02:41:14;53.55;;;31.17;;
63112;SDS011;49206;48.020;21.378;2024-02-15T02:42:18;56.15;;;30.67;;
63112;SDS011;49206;48.020;21.378;2024-02-15T02:43:20;52.00;;;30.83;;
63112;SDS011;49206;48.020;21.378;2024-02-15T02:44:23;52.53;;;30.17;;
63112;SDS011;49206;48.020;21.378;2024-02-15T02:45:27;53.30;;;31.83;;
63112;SDS011;49206;48.020;21.378;2024-02-15T02:46:30;62.88;;;32.35;;
63112;SDS011;49206;48.020;21.378;2024-02-15T02:47:33;56.30;;;33.00;;
63112;SDS011;49206;48.020;21.378;2024-02-15T02:48:39;49.33;;;32.00;;
63112;SDS011;49206;48.020;21.378;2024-02-15T02:49:43;55.83;;;31.90;;
63112;SDS011;49206;48.020;21.378;2024-02-15T02:50:46;58.47;;;31.95;;
63112;SDS011;49206;48.020;21.378;2024-02-15T02:51:50;51.67;;;30.17;;
63112;SDS011;49206;48.020;21.378;2024-02-15T02:52:53;52.08;;;29.92;;
63112;SDS011;49206;48.020;21.378;2024-02-15T02:53:56;54.85;;;30.70;;
63112;SDS011;49206;48.020;21.378;2024-02-15T02:54:59;49.60;;;28.42;;
63112;SDS011;49206;48.020;21.378;2024-02-15T02:56:02;48.33;;;30.15;;
63112;SDS011;49206;48.020;21.378;2024-02-15T02:57:06;55.38;;;31.42;;
63112;SDS011;49206;48.020;21.378;2024-02-15T02:58:09;47.25;;;31.10;;
63112;SDS011;49206;48.020;21.378;2024-02-15T02:59:12;54.45;;;30.00;;
63112;SDS011;49206;48.020;21.378;2024-02-15T03:00:15;54.33;;;30.42;;
63112;SDS011;49206;48.020;21.378;2024-02-15T03:01:19;49.47;;;29.52;;
63112;SDS011;49206;48.020;21.378;2024-02-15T03:02:21;50.47;;;29.52;;
63112;SDS011;49206;48.020;21.378;2024-02-15T03:03:25;54.80;;;29.67;;
63112;SDS011;49206;48.020;21.378;2024-02-15T03:04:27;50.65;;;29.60;;
63112;SDS011;49206;48.020;21.378;2024-02-15T03:05:30;48.03;;;30.30;;
63112;SDS011;49206;48.020;21.378;2024-02-15T03:06:34;51.10;;;28.75;;
63112;SDS011;49206;48.020;21.378;2024-02-15T03:07:37;49.63;;;29.13;;
63112;SDS011;49206;48.020;21.378;2024-02-15T03:08:40;46.10;;;28.13;;
63112;SDS011;49206;48.020;21.378;2024-02-15T03:09:43;48.55;;;26.67;;
63112;SDS011;49206;48.020;21.378;2024-02-15T03:10:46;49.65;;;26.13;;
63112;SDS011;49206;48.020;21.378;2024-02-15T03:11:48;43.65;;;27.58;;
63112;SDS011;49206;48.020;21.378;2024-02-15T03:12:52;46.13;;;26.85;;
63112;SDS011;49206;48.020;21.378;2024-02-15T03:13:55;47.95;;;26.73;;
63112;SDS011;49206;48.020;21.378;2024-02-15T03:15:00;47.97;;;25.38;;
63112;SDS011;49206;48.020;21.378;2024-02-15T03:16:04;45.45;;;25.35;;
63112;SDS011;49206;48.020;21.378;2024-02-15T03:17:08;46.05;;;27.65;;
63112;SDS011;49206;48.020;21.378;2024-02-15T03:18:11;45.55;;;25.83;;
63112;SDS011;49206;48.020;21.378;2024-02-15T03:19:15;44.45;;;25.38;;
63112;SDS011;49206;48.020;21.378;2024-02-15T03:20:17;44.80;;;25.52;;
63112;SDS011;49206;48.020;21.378;2024-02-15T03:21:26;40.88;;;23.85;;
63112;SDS011;49206;48.020;21.378;2024-02-15T03:22:28;42.20;;;24.02;;
63112;SDS011;49206;48.020;21.378;2024-02-15T03:23:31;40.83;;;24.98;;
63112;SDS011;49206;48.020;21.378;2024-02-15T03:24:35;38.65;;;22.65;;
63112;SDS011;49206;48.020;21.378;2024-02-15T03:25:38;40.45;;;24.45;;
63112;SDS011;49206;48.020;21.378;2024-02-15T03:26:41;42.40;;;24.88;;
63112;SDS011;49206;48.020;21.378;2024-02-15T03:27:45;41.80;;;23.55;;
63112;SDS011;49206;48.020;21.378;2024-02-15T03:28:48;39.15;;;24.10;;
63112;SDS011;49206;48.020;21.378;2024-02-15T03:29:52;45.83;;;25.52;;
63112;SDS011;49206;48.020;21.378;2024-02-15T03:30:55;42.13;;;24.02;;
63112;SDS011;49206;48.020;21.378;2024-02-15T03:31:58;38.03;;;23.63;;
63112;SDS011;49206;48.020;21.378;2024-02-15T03:33:01;41.15;;;23.60;;
63112;SDS011;49206;48.020;21.378;2024-02-15T03:34:08;43.78;;;25.83;;
63112;SDS011;49206;48.020;21.378;2024-02-15T03:35:13;42.10;;;24.60;;
63112;SDS011;49206;48.020;21.378;2024-02-15T03:36:16;45.90;;;23.60;;
63112;SDS011;49206;48.020;21.378;2024-02-15T03:37:22;50.47;;;25.95;;
63112;SDS011;49206;48.020;21.378;2024-02-15T03:38:25;47.78;;;24.83;;
63112;SDS011;49206;48.020;21.378;2024-02-15T03:39:28;40.00;;;24.90;;
63112;SDS011;49206;48.020;21.378;2024-02-15T03:40:32;42.35;;;23.73;;
63112;SDS011;49206;48.020;21.378;2024-02-15T03:41:35;45.33;;;24.63;;
63112;SDS011;49206;48.020;21.378;2024-02-15T03:42:38;41.28;;;23.02;;
63112;SDS011;49206;48.020;21.378;2024-02-15T03:43:41;40.00;;;23.15;;
63112;SDS011;49206;48.020;21.378;2024-02-15T03:44:44;42.22;;;23.30;;
63112;SDS011;49206;48.020;21.378;2024-02-15T03:45:46;41.95;;;24.10;;
63112;SDS011;49206;48.020;21.378;2024-02-15T03:46:49;41.65;;;22.83;;
63112;SDS011;49206;48.020;21.378;2024-02-15T03:47:53;43.22;;;23.77;;
63112;SDS011;49206;48.020;21.378;2024-02-15T03:48:56;42.65;;;24.58;;
63112;SDS011;49206;48.020;21.378;2024-02-15T03:50:00;41.28;;;22.75;;
63112;SDS011;49206;48.020;21.378;2024-02-15T03:51:03;38.03;;;22.77;;
63112;SDS011;49206;48.020;21.378;2024-02-15T03:52:06;40.22;;;23.10;;
63112;SDS011;49206;48.020;21.378;2024-02-15T03:53:09;44.38;;;23.35;;
63112;SDS011;49206;48.020;21.378;2024-02-15T03:54:14;38.70;;;22.35;;
63112;SDS011;49206;48.020;21.378;2024-02-15T03:55:16;36.70;;;22.23;;
63112;SDS011;49206;48.020;21.378;2024-02-15T03:56:19;42.08;;;22.38;;
63112;SDS011;49206;48.020;21.378;2024-02-15T03:57:26;38.08;;;20.52;;
63112;SDS011;49206;48.020;21.378;2024-02-15T03:58:28;33.67;;;21.33;;
63112;SDS011;49206;48.020;21.378;2024-02-15T03:59:35;36.28;;;20.60;;
63112;SDS011;49206;48.020;21.378;2024-02-15T04:00:38;37.05;;;21.52;;
63112;SDS011;49206;48.020;21.378;2024-02-15T04:01:42;33.78;;;21.40;;
63112;SDS011;49206;48.020;21.378;2024-02-15T04:02:45;37.10;;;20.95;;
63112;SDS011;49206;48.020;21.378;2024-02-15T04:03:50;34.60;;;20.35;;
63112;SDS011;49206;48.020;21.378;2024-02-15T04:04:53;38.65;;;21.48;;
63112;SDS011;49206;48.020;21.378;2024-02-15T04:05:57;35.17;;;21.45;;
63112;SDS011;49206;48.020;21.378;2024-02-15T04:07:00;38.65;;;20.55;;
63112;SDS011;49206;48.020;21.378;2024-02-15T04:08:04;37.13;;;20.35;;
63112;SDS011;49206;48.020;21.378;2024-02-15T04:09:07;38.05;;;20.67;;
63112;SDS011;49206;48.020;21.378;2024-02-15T04:10:10;37.25;;;21.35;;
63112;SDS011;49206;48.020;21.378;2024-02-15T04:11:14;35.47;;;20.27;;
63112;SDS011;49206;48.020;21.378;2024-02-15T04:12:18;33.08;;;20.20;;
63112;SDS011;49206;48.020;21.378;2024-02-15T04:13:21;34.40;;;19.15;;
63112;SDS011;49206;48.020;21.378;2024-02-15T04:14:23;35.88;;;20.65;;
63112;SDS011;49206;48.020;21.378;2024-02-15T04:15:26;35.42;;;20.27;;
63112;SDS011;49206;48.020;21.378;2024-02-15T04:16:29;35.33;;;19.90;;
63112;SDS011;49206;48.020;21.378;2024-02-15T04:17:37;35.05;;;20.83;;
63112;SDS011;49206;48.020;21.378;2024-02-15T04:18:40;35.38;;;21.17;;
63112;SDS011;49206;48.020;21.378;2024-02-15T04:19:44;32.67;;;19.90;;
63112;SDS011;49206;48.020;21.378;2024-02-15T04:20:48;28.95;;;18.50;;
63112;SDS011;49206;48.020;21.378;2024-02-15T04:21:51;33.08;;;19.75;;
63112;SDS011;49206;48.020;21.378;2024-02-15T04:22:54;34.45;;;20.38;;
63112;SDS011;49206;48.020;21.378;2024-02-15T04:23:59;34.58;;;19.38;;
63112;SDS011;49206;48.020;21.378;2024-02-15T04:25:05;30.85;;;17.83;;
63112;SDS011;49206;48.020;21.378;2024-02-15T04:26:19;38.70;;;19.10;;
63112;SDS011;49206;48.020;21.378;2024-02-15T04:27:22;34.80;;;19.27;;
63112;SDS011;49206;48.020;21.378;2024-02-15T04:28:25;34.08;;;19.30;;
63112;SDS011;49206;48.020;21.378;2024-02-15T04:29:29;36.35;;;20.17;;
63112;SDS011;49206;48.020;21.378;2024-02-15T04:30:32;33.33;;;19.38;;
63112;SDS011;49206;48.020;21.378;2024-02-15T04:31:37;37.70;;;19.38;;
63112;SDS011;49206;48.020;21.378;2024-02-15T04:32:41;32.50;;;18.70;;
63112;SDS011;49206;48.020;21.378;2024-02-15T04:33:44;32.72;;;19.25;;
63112;SDS011;49206;48.020;21.378;2024-02-15T04:34:51;32.72;;;20.00;;
63112;SDS011;49206;48.020;21.378;2024-02-15T04:35:54;34.95;;;20.67;;
63112;SDS011;49206;48.020;21.378;2024-02-15T04:36:57;31.13;;;18.67;;
63112;SDS011;49206;48.020;21.378;2024-02-15T04:38:00;37.53;;;19.13;;
63112;SDS011;49206;48.020;21.378;2024-02-15T04:39:03;31.30;;;17.63;;
63112;SDS011;49206;48.020;21.378;2024-02-15T04:40:07;35.65;;;18.33;;
63112;SDS011;49206;48.020;21.378;2024-02-15T04:41:13;34.30;;;17.38;;
63112;SDS011;49206;48.020;21.378;2024-02-15T04:42:16;32.92;;;18.77;;
63112;SDS011;49206;48.020;21.378;2024-02-15T04:44:24;30.13;;;15.52;;
63112;SDS011;49206;48.020;21.378;2024-02-15T04:45:30;30.63;;;17.98;;
63112;SDS011;49206;48.020;21.378;2024-02-15T04:46:32;34.25;;;17.27;;
63112;SDS011;49206;48.020;21.378;2024-02-15T04:47:36;37.50;;;17.95;;
63112;SDS011;49206;48.020;21.378;2024-02-15T04:48:40;28.27;;;16.73;;
63112;SDS011;49206;48.020;21.378;2024-02-15T04:49:46;32.83;;;17.80;;
63112;SDS011;49206;48.020;21.378;2024-02-15T04:50:49;31.63;;;18.73;;
63112;SDS011;49206;48.020;21.378;2024-02-15T04:51:51;35.15;;;18.40;;
63112;SDS011;49206;48.020;21.378;2024-02-15T04:52:54;30.27;;;18.08;;
63112;SDS011;49206;48.020;21.378;2024-02-15T04:53:57;27.63;;;17.10;;
63112;SDS011;49206;48.020;21.378;2024-02-15T04:55:01;29.55;;;17.55;;
63112;SDS011;49206;48.020;21.378;2024-02-15T04:56:07;29.00;;;17.83;;
63112;SDS011;49206;48.020;21.378;2024-02-15T04:57:15;30.30;;;16.15;;
63112;SDS011;49206;48.020;21.378;2024-02-15T04:58:20;30.70;;;17.63;;
63112;SDS011;49206;48.020;21.378;2024-02-15T04:59:22;32.42;;;18.42;;
63112;SDS011;49206;48.020;21.378;2024-02-15T05:00:28;37.30;;;21.13;;
63112;SDS011;49206;48.020;21.378;2024-02-15T05:01:31;39.22;;;20.10;;
63112;SDS011;49206;48.020;21.378;2024-02-15T05:02:34;38.50;;;22.00;;
63112;SDS011;49206;48.020;21.378;2024-02-15T05:03:43;42.13;;;23.05;;
63112;SDS011;49206;48.020;21.378;2024-02-15T05:04:46;33.55;;;18.70;;
63112;SDS011;49206;48.020;21.378;2024-02-15T05:05:50;34.42;;;20.23;;
63112;SDS011;49206;48.020;21.378;2024-02-15T05:06:53;34.75;;;19.00;;
63112;SDS011;49206;48.020;21.378;2024-02-15T05:07:56;33.45;;;19.42;;
63112;SDS011;49206;48.020;21.378;2024-02-15T05:08:59;32.60;;;18.88;;
63112;SDS011;49206;48.020;21.378;2024-02-15T05:10:03;29.63;;;17.40;;
63112;SDS011;49206;48.020;21.378;2024-02-15T05:11:11;31.38;;;19.30;;
63112;SDS011;49206;48.020;21.378;2024-02-15T05:12:22;31.38;;;18.92;;
63112;SDS011;49206;48.020;21.378;2024-02-15T05:13:28;28.45;;;16.27;;
63112;SDS011;49206;48.020;21.378;2024-02-15T05:14:32;30.63;;;16.50;;
63112;SDS011;49206;48.020;21.378;2024-02-15T05:15:35;30.98;;;17.38;;
63112;SDS011;49206;48.020;21.378;2024-02-15T05:16:37;29.80;;;17.10;;
63112;SDS011;49206;48.020;21.378;2024-02-15T05:17:46;27.15;;;16.52;;
63112;SDS011;49206;48.020;21.378;2024-02-15T05:18:50;30.15;;;15.98;;
63112;SDS011;49206;48.020;21.378;2024-02-15T05:19:53;32.35;;;17.48;;
63112;SDS011;49206;48.020;21.378;2024-02-15T05:20:56;27.65;;;15.80;;
63112;SDS011;49206;48.020;21.378;2024-02-15T05:21:59;25.83;;;14.85;;
63112;SDS011;49206;48.020;21.378;2024-02-15T05:23:03;30.40;;;16.25;;
63112;SDS011;49206;48.020;21.378;2024-02-15T05:24:06;28.23;;;15.90;;
63112;SDS011;49206;48.020;21.378;2024-02-15T05:25:09;28.48;;;17.67;;
63112;SDS011;49206;48.020;21.378;2024-02-15T05:26:11;29.27;;;15.63;;
63112;SDS011;49206;48.020;21.378;2024-02-15T05:27:14;30.25;;;16.55;;
63112;SDS011;49206;48.020;21.378;2024-02-15T05:28:18;26.23;;;15.55;;
63112;SDS011;49206;48.020;21.378;2024-02-15T05:29:23;27.92;;;15.20;;
63112;SDS011;49206;48.020;21.378;2024-02-15T05:30:26;26.42;;;16.48;;
63112;SDS011;49206;48.020;21.378;2024-02-15T05:31:29;27.48;;;15.98;;
63112;SDS011;49206;48.020;21.378;2024-02-15T05:32:33;30.98;;;16.15;;
63112;SDS011;49206;48.020;21.378;2024-02-15T05:33:44;28.48;;;14.73;;
63112;SDS011;49206;48.020;21.378;2024-02-15T05:34:48;31.45;;;18.02;;
63112;SDS011;49206;48.020;21.378;2024-02-15T05:35:50;29.17;;;17.27;;
63112;SDS011;49206;48.020;21.378;2024-02-15T05:36:53;32.30;;;16.48;;
63112;SDS011;49206;48.020;21.378;2024-02-15T05:37:57;31.67;;;17.58;;
63112;SDS011;49206;48.020;21.378;2024-02-15T05:39:00;29.10;;;17.73;;
63112;SDS011;49206;48.020;21.378;2024-02-15T05:40:05;35.70;;;19.05;;
63112;SDS011;49206;48.020;21.378;2024-02-15T05:41:09;30.50;;;16.55;;
63112;SDS011;49206;48.020;21.378;2024-02-15T05:42:13;28.58;;;17.25;;
63112;SDS011;49206;48.020;21.378;2024-02-15T05:43:17;52.17;;;25.40;;
63112;SDS011;49206;48.020;21.378;2024-02-15T05:44:20;45.10;;;23.63;;
63112;SDS011;49206;48.020;21.378;2024-02-15T05:46:29;58.33;;;28.90;;
63112;SDS011;49206;48.020;21.378;2024-02-15T05:47:33;105.65;;;49.50;;
63112;SDS011;49206;48.020;21.378;2024-02-15T05:48:36;113.03;;;52.88;;
63112;SDS011;49206;48.020;21.378;2024-02-15T05:49:39;100.82;;;47.15;;
63112;SDS011;49206;48.020;21.378;2024-02-15T05:50:42;97.53;;;45.88;;
63112;SDS011;49206;48.020;21.378;2024-02-15T05:51:45;91.95;;;44.17;;
63112;SDS011;49206;48.020;21.378;2024-02-15T05:52:49;87.68;;;40.05;;
63112;SDS011;49206;48.020;21.378;2024-02-15T05:53:54;79.55;;;40.95;;
63112;SDS011;49206;48.020;21.378;2024-02-15T05:55:00;75.30;;;37.10;;
63112;SDS011;49206;48.020;21.378;2024-02-15T05:56:05;73.68;;;34.53;;
63112;SDS011;49206;48.020;21.378;2024-02-15T05:57:09;70.72;;;34.95;;
63112;SDS011;49206;48.020;21.378;2024-02-15T05:58:11;61.03;;;31.52;;
63112;SDS011;49206;48.020;21.378;2024-02-15T05:59:16;59.72;;;31.80;;
63112;SDS011;49206;48.020;21.378;2024-02-15T06:00:18;60.70;;;30.77;;
63112;SDS011;49206;48.020;21.378;2024-02-15T06:01:25;50.50;;;27.58;;
63112;SDS011;49206;48.020;21.378;2024-02-15T06:02:28;44.63;;;24.40;;
63112;SDS011;49206;48.020;21.378;2024-02-15T06:03:31;37.42;;;22.58;;
63112;SDS011;49206;48.020;21.378;2024-02-15T06:04:35;36.38;;;21.85;;
63112;SDS011;49206;48.020;21.378;2024-02-15T06:05:38;40.05;;;23.45;;
63112;SDS011;49206;48.020;21.378;2024-02-15T06:06:42;38.92;;;23.27;;
63112;SDS011;49206;48.020;21.378;2024-02-15T06:07:45;39.55;;;21.55;;
63112;SDS011;49206;48.020;21.378;2024-02-15T06:10:55;26.95;;;16.92;;
63112;SDS011;49206;48.020;21.378;2024-02-15T06:11:58;31.75;;;18.95;;